This is the latest recevied weather packets stored in our database for station/object SR6WXJG. If no packets are shown the sender has not sent any weather packets the latest 10 day(s).
| Time | Temp. | Humidity | Pressure | Rain* | Wind** | Luminosity | Snow |
|---|---|---|---|---|---|---|---|
| 1777172426 | 6.11° C | 70% | 1020 hPa | 0 mm | - | - | - |
| 1777171526 | 6.11° C | 70% | 1020 hPa | 0 mm | - | - | - |
| 1777170626 | 6.11° C | 69% | 1020 hPa | 0 mm | - | - | - |
| 1777169726 | 7.78° C | 62% | 1018 hPa | 0 mm | - | - | - |
| 1777168825 | 7.22° C | 68% | 1018 hPa | 0 mm | - | - | - |
| 1777167925 | 7.22° C | 67% | 1018 hPa | 0 mm | - | - | - |
| 1777167025 | 7.78° C | 66% | 1018 hPa | 0 mm | - | - | - |
| 1777166124 | 8.89° C | 55% | 1016 hPa | 0 mm | - | - | - |
| 1777165224 | 8.33° C | 62% | 1017 hPa | 0 mm | - | - | - |
| 1777164324 | 8.33° C | 62% | 1017 hPa | 0 mm | - | - | - |
| 1777163423 | 8.33° C | 61% | 1017 hPa | 0 mm | - | - | - |
| 1777162523 | 9.44° C | 50% | 1016 hPa | 0 mm | - | - | - |
| 1777161623 | 8.89° C | 61% | 1017 hPa | 0 mm | - | - | - |
| 1777160722 | 8.89° C | 61% | 1017 hPa | 0 mm | - | - | - |
| 1777159822 | 8.89° C | 60% | 1016 hPa | 0 mm | - | - | - |
| 1777158922 | 10° C | 47% | 1015 hPa | 0 mm | - | - | - |
| 1777158021 | 9.44° C | 59% | 1016 hPa | 0 mm | - | - | - |
| 1777157121 | 10° C | 59% | 1016 hPa | 0 mm | - | - | - |
| 1777156220 | 10° C | 58% | 1016 hPa | 0 mm | - | - | - |
| 1777155320 | 10.56° C | 45% | 1015 hPa | 0 mm | - | - | - |
| 1777154420 | 10.56° C | 57% | 1016 hPa | 0 mm | - | - | - |
| 1777153519 | 10.56° C | 57% | 1016 hPa | 0 mm | - | - | - |
| 1777152619 | 10.56° C | 57% | 1015 hPa | 0 mm | - | - | - |
| 1777151719 | 11.67° C | 44% | 1014 hPa | 0 mm | - | - | - |
| 1777150818 | 11.11° C | 56% | 1015 hPa | 0 mm | - | - | - |
* Rain latest hour (hover to see other rain measurements)
** Current wind speed in m/s (hover to see current wind gust speed)